Flight Track Log - Related Links

Times and Time Zones

All times are in EDT time to prevent confusion due to time zone crossing. See the EJA831 flight status page for this flight to view local times or setup timezone preferences in your user account.

Time Position Orientation Groundspeed Altitude Reporting Facility
EDT Latitude Longitude Course Direction KTS MPH feet Rate Location/Type
Wed 04:18:13 PM 39.8667 -75.2667 218° Southwest 188 216 1,200  Level Philadelphia TRACON
Wed 04:19:25 PM 39.8000 -75.3333 218° Southwest 262 302 4,300 2,909 Climbing Philadelphia TRACON
Wed 04:20:25 PM 39.7333 -75.3500 191° South 274 315 7,600 3,074 Climbing Philadelphia TRACON
Wed 04:21:26 PM 39.6500 -75.3667 189° South 274 315 10,500 1,886 Climbing Philadelphia TRACON
Wed 04:22:45 PM 39.5467 -75.3681 181° South 308 354 12,000 900 Climbing Washington Center
Wed 04:23:46 PM 39.4569 -75.3711 182° South 313 360 12,600 1,160 Climbing Washington Center
Wed 04:24:44 PM 39.3675 -75.3742 182° South 319 367 14,300 1,664 Climbing Washington Center
Wed 04:25:45 PM 39.2736 -75.3797 183° South 330 380 15,900 1,672 Climbing Washington Center
Wed 04:26:46 PM 39.1758 -75.3856 183° South 342 394 17,700 1,650 Climbing Washington Center
Wed 04:27:45 PM 39.0778 -75.4017 187° South 355 409 19,200 1,600 Climbing Washington Center
Wed 04:28:46 PM 38.9736 -75.4208 188° South 369 425 20,900 1,686 Climbing Washington Center
Wed 04:29:46 PM 38.8672 -75.4317 185° South 375 432 22,600 1,729 Climbing Washington Center
Wed 04:30:44 PM 38.7611 -75.4478 187° South 380 437 24,300 1,678 Climbing Washington Center
Wed 04:31:44 PM 38.6525 -75.4642 187° South 391 450 25,900 850 Climbing Washington Center
Wed 04:32:44 PM 38.5400 -75.4828 187° South 397 457 26,000 49 Climbing Washington Center
Wed 04:33:46 PM 38.4233 -75.5017 187° South 413 475 26,000  Level Washington Center
Wed 04:34:44 PM 38.3108 -75.5414 195° South 426 490 26,000  Level Washington Center
Wed 04:35:45 PM 38.2231 -75.6181 214° Southwest 426 490 26,000  Level Washington Center
Wed 04:36:46 PM 38.1333 -75.7053 217° Southwest 414 476 26,000  Level Washington Center
Wed 04:37:46 PM 38.0375 -75.8081 220° Southwest 414 476 26,000  Level Washington Center
Wed 04:38:47 PM 37.9475 -75.8842 214° Southwest 420 483 26,000  Level Washington Center
Wed 04:40:46 PM 37.7656 -76.0567 215° Southwest 415 478 26,000  Level Washington Center
Wed 04:41:47 PM 37.6778 -76.1403 217° Southwest 415 478 26,000  Level Washington Center
Wed 04:42:46 PM 37.5750 -76.2286 214° Southwest 415 478 26,000  Level Washington Center
Wed 04:43:46 PM 37.4786 -76.3167 216° Southwest 421 484 26,000  Level Washington Center
Wed 04:44:45 PM 37.3864 -76.3994 216° Southwest 426 490 26,000  Level Washington Center
Wed 04:45:46 PM 37.3044 -76.4769 217° Southwest 426 490 26,000  Level Washington Center
Wed 04:46:46 PM 37.2097 -76.5619 216° Southwest 421 484 26,000  Level Washington Center
Wed 04:47:46 PM 37.1131 -76.6519 217° Southwest 426 490 26,000  Level Washington Center
Wed 04:48:44 PM 37.0042 -76.7181 206° Southwest 437 503 26,000  Level Washington Center
Wed 04:49:45 PM 36.8908 -76.7761 202° Southwest 437 503 26,000 -300 Level Washington Center
Wed 04:50:44 PM 36.7778 -76.8314 201° Southwest 437 503 25,400 -1,000 Descending Washington Center
Wed 04:51:45 PM 36.6728 -76.8817 201° Southwest 432 497 24,000 -694 Descending Washington Center
Wed 04:52:45 PM 36.5658 -76.9342 202° Southwest 421 484 24,000  Level Washington Center
Wed 04:53:46 PM 36.4589 -76.9892 202° Southwest 415 478 24,000 -496 Level Washington Center
Wed 04:54:46 PM 36.3517 -77.0414 201° Southwest 415 478 23,000 -508 Descending Washington Center
Wed 04:55:44 PM 36.2672 -77.1197 217° Southwest 398 458 23,000 -950 Level Washington Center
Wed 04:56:46 PM 36.1825 -77.2211 224° Southwest 395 455 21,100 -1,750 Descending Washington Center
Wed 04:57:44 PM 36.1111 -77.2658 207° Southwest 380 437 19,500 -1,563 Descending Washington Center
Wed 04:58:45 PM 36.0064 -77.2944 192° South 360 414 18,000 -793 Descending Washington Center
Wed 04:59:45 PM 35.9078 -77.3178 191° South 352 405 17,900 -1,311 Descending Washington Center
Wed 05:00:44 PM 35.8178 -77.3417 192° South 352 405 15,400 -2,850 Descending Washington Center
Wed 05:01:45 PM 35.7339 -77.3628 192° South 329 379 12,200 -3,124 Descending Washington Center
Wed 05:02:45 PM 35.6669 -77.3792 191° South 287 330 9,100 -3,074 Descending Washington Center
Wed 05:03:46 PM 35.6061 -77.3983 194° South 252 290 6,000 7,388 Descending Washington Center
Wed 05:04:46 PM 35.5969 -77.4542 259° West 190 219 24,000 -450 Climbing Washington Center
Wed 05:05:46 PM 35.6550 -77.4889 334° Northwest 124 143 5,100 -9,661 Descending Washington Center
Wed 05:06:44 PM 35.7086 -77.5156 338° Northwest 161 185 5,000 -559 Descending Washington Center
Wed 05:07:44 PM 35.7714 -77.5044 North 189 217 4,000 -492 Descending Washington Center
Wed 05:08:46 PM 35.7875 -77.5483 294° West 146 168 4,000  Level Washington Center

Login

Don't have an account? Register now (free) for customized features, flight alerts, and more!